McClure, Pennsylvania
Current Conditions -  °F | °C
As of 8:53 AM on Saturday 22 Nov 2014 (Local Time) from KSEG Reporting Station
Clear Clear  
Wind Chill: 17°   Ceiling: Unl
Heat Index: 23°   Visibility: 9mi
Dew Point: 14°   Wind: 5mph
Humidity: 68%   Direction: 190°S
Pressure: 30.44"   Gusts: NA
Location:  40.71°N, 77.31°W
Report Text: KSEG 221353Z AUTO 19004KT 9SM CLR M05/M10 A3044 RMK AO2 SLP315 T10501100
Loading
Personal Weather Stations






























Interactive Weather Map New forecast layout! Learn more

10-Day Weather Forecast

Advertisements
Track Severe Weather on mobile